Time;durP1;ratioP1;P1;durP2;ratioP2;P2;SDS_P1;SDS_P2;PMS_P1;PMS_P2;Temp;Humidity;BMP_temperature;BMP_pressure;BME280_temperature;BME280_humidity;BME280_pressure;Samples;Min_cycle;Max_cycle;Signal;HPM_P1;HPM_P2
2023/04/23 00:00:41;;;;;;;8.90;7.37;;;16.70;70.10;;;;;;5078842;28;20563;-56
2023/04/23 00:03:11;;;;;;;8.40;7.17;;;16.60;70.70;;;;;;5078546;28;20453;-56
2023/04/23 00:05:40;;;;;;;11.80;8.17;;;16.60;71.00;;;;;;5078845;28;20461;-54
2023/04/23 00:08:10;;;;;;;9.00;7.90;;;16.50;72.10;;;;;;5078197;28;20537;-56
2023/04/23 00:10:37;;;;;;;12.90;8.17;;;16.50;72.90;;;;;;5078919;28;20478;-53
2023/04/23 00:13:04;;;;;;;12.07;7.40;;;16.60;73.60;;;;;;5078939;28;20856;-55
2023/04/23 00:15:32;;;;;;;10.10;7.30;;;16.60;74.50;;;;;;5078373;28;20480;-55
2023/04/23 00:17:59;;;;;;;9.97;6.30;;;16.60;74.90;;;;;;5078669;28;20438;-55
2023/04/23 00:20:27;;;;;;;10.60;6.70;;;16.60;75.20;;;;;;5080732;28;20545;-56
2023/04/23 00:22:54;;;;;;;12.77;7.77;;;16.60;75.10;;;;;;5080885;28;20490;-56
2023/04/23 00:25:21;;;;;;;11.23;8.20;;;16.60;75.50;;;;;;5091350;28;20465;-56
2023/04/23 00:27:48;;;;;;;7.90;7.10;;;16.50;76.30;;;;;;5089141;28;20466;-54
2023/04/23 00:30:15;;;;;;;9.90;7.17;;;16.50;77.30;;;;;;5087045;28;20474;-58
2023/04/23 00:32:43;;;;;;;10.20;7.90;;;16.50;77.10;;;;;;5087765;28;20823;-52
2023/04/23 00:35:10;;;;;;;10.03;6.63;;;16.40;77.70;;;;;;5088008;28;20480;-52
2023/04/23 00:37:38;;;;;;;7.83;6.73;;;16.40;79.60;;;;;;5087807;28;20478;-56
2023/04/23 00:40:07;;;;;;;7.80;7.00;;;16.40;80.20;;;;;;5086886;28;20494;-52
2023/04/23 00:42:34;;;;;;;8.93;7.10;;;16.40;80.80;;;;;;5087660;28;20450;-54
2023/04/23 00:45:01;;;;;;;9.03;7.50;;;16.40;81.40;;;;;;5087448;28;20426;-56
2023/04/23 00:47:29;;;;;;;9.13;6.97;;;16.40;81.60;;;;;;5087169;28;20438;-51
2023/04/23 00:49:56;;;;;;;9.77;6.30;;;16.40;82.40;;;;;;5086583;28;20962;-56
2023/04/23 00:52:23;;;;;;;8.53;7.67;;;16.40;83.30;;;;;;5088152;28;20474;-56
2023/04/23 00:54:51;;;;;;;9.23;8.23;;;16.40;83.90;;;;;;5087896;28;20486;-55
2023/04/23 00:57:18;;;;;;;11.50;8.20;;;16.40;84.00;;;;;;5088128;28;20953;-53
2023/04/23 00:59:46;;;;;;;11.23;7.70;;;16.30;84.80;;;;;;5087738;28;20501;-56
2023/04/23 01:02:13;;;;;;;9.53;7.90;;;16.30;85.10;;;;;;5087370;28;20474;-56
2023/04/23 01:04:42;;;;;;;9.43;7.80;;;16.20;86.40;;;;;;5087020;28;20442;-55
2023/04/23 01:07:09;;;;;;;9.97;7.43;;;16.20;87.30;;;;;;5087529;28;20508;-52
2023/04/23 01:09:36;;;;;;;8.70;6.83;;;16.20;88.40;;;;;;5087532;28;20453;-54
2023/04/23 01:12:06;;;;;;;9.27;7.50;;;16.20;89.20;;;;;;5086888;28;20497;-53
2023/04/23 01:14:33;;;;;;;9.00;8.10;;;16.10;90.30;;;;;;5086824;28;20457;-56
2023/04/23 01:17:00;;;;;;;10.37;7.67;;;16.10;90.50;;;;;;5087181;28;20489;-54
2023/04/23 01:19:27;;;;;;;7.83;6.27;;;16.10;90.80;;;;;;5087051;28;20446;-55
2023/04/23 01:22:00;;;;;;;8.30;7.33;;;16.20;91.30;;;;;;5086821;28;20498;-54
2023/04/23 01:24:29;;;;;;;8.47;7.30;;;16.20;91.10;;;;;;5086579;28;20431;-55
2023/04/23 01:26:57;;;;;;;11.57;7.90;;;16.20;92.00;;;;;;5086442;28;20544;-56
2023/04/23 01:29:24;;;;;;;11.50;6.83;;;16.20;91.90;;;;;;5086399;28;20547;-52
2023/04/23 01:31:51;;;;;;;10.90;8.40;;;16.10;91.80;;;;;;5087212;28;20822;-55
2023/04/23 01:34:19;;;;;;;9.20;7.17;;;16.10;92.40;;;;;;5086612;28;20462;-55
2023/04/23 01:36:48;;;;;;;8.40;7.40;;;16.10;92.70;;;;;;5086644;28;20891;-55
2023/04/23 01:39:15;;;;;;;8.87;6.80;;;16.10;93.10;;;;;;5087434;28;20466;-56
2023/04/23 01:41:44;;;;;;;8.40;7.23;;;16.10;93.80;;;;;;5086478;28;20482;-53
2023/04/23 01:44:11;;;;;;;14.83;7.50;;;16.10;94.20;;;;;;5086779;28;20438;-56
2023/04/23 01:46:38;;;;;;;11.30;7.00;;;16.10;94.50;;;;;;5087463;28;20911;-54
2023/04/23 01:49:05;;;;;;;9.93;7.90;;;16.10;94.40;;;;;;5087340;28;20466;-55
2023/04/23 01:51:32;;;;;;;11.37;7.87;;;16.20;94.50;;;;;;5086478;28;20470;-56
2023/04/23 01:53:59;;;;;;;9.90;7.70;;;16.20;94.90;;;;;;5086279;28;20755;-53
2023/04/23 01:56:35;;;;;;;9.80;7.90;;;16.20;95.30;;;;;;5086356;28;20520;-54
2023/04/23 01:59:03;;;;;;;14.73;7.67;;;16.20;96.10;;;;;;5086757;28;20434;-54
2023/04/23 02:01:42;;;;;;;8.03;7.10;;;16.20;97.40;;;;;;5084984;28;20585;-57
2023/04/23 02:04:10;;;;;;;9.07;7.60;;;16.10;98.20;;;;;;5085651;28;20445;-54
2023/04/23 02:06:37;;;;;;;14.00;8.50;;;16.10;99.60;;;;;;5085830;28;20445;-52
2023/04/23 02:09:04;;;;;;;13.40;9.03;;;16.10;99.90;;;;;;5086348;28;20429;-55
2023/04/23 02:11:31;;;;;;;10.90;7.67;;;16.00;99.90;;;;;;5086189;28;20449;-55
2023/04/23 02:13:58;;;;;;;10.27;7.90;;;16.00;99.90;;;;;;5086158;28;20462;-55
2023/04/23 02:16:27;;;;;;;12.70;8.67;;;15.90;99.90;;;;;;5086654;28;20483;-56
2023/04/23 02:18:54;;;;;;;13.77;9.20;;;15.80;99.90;;;;;;5086564;28;20477;-55
2023/04/23 02:21:24;;;;;;;11.17;8.70;;;15.70;99.90;;;;;;5086852;28;20488;-52
2023/04/23 02:23:51;;;;;;;13.37;8.07;;;15.50;99.90;;;;;;5087068;28;20470;-56
2023/04/23 02:26:18;;;;;;;14.00;8.80;;;15.50;99.90;;;;;;5087578;28;20438;-54
2023/04/23 02:28:46;;;;;;;18.63;9.00;;;15.40;99.90;;;;;;5087715;28;20457;-56
2023/04/23 02:31:13;;;;;;;10.70;8.10;;;15.30;99.90;;;;;;5087601;28;20461;-56
2023/04/23 02:33:41;;;;;;;11.60;10.00;;;15.30;99.90;;;;;;5087917;28;20442;-55
2023/04/23 02:36:09;;;;;;;11.57;8.83;;;15.20;99.90;;;;;;5087640;28;20500;-55
2023/04/23 02:38:36;;;;;;;10.13;8.23;;;15.10;99.90;;;;;;5087895;28;20469;-55
2023/04/23 02:41:03;;;;;;;10.60;9.50;;;15.00;99.90;;;;;;5087537;28;20557;-56
2023/04/23 02:43:30;;;;;;;10.80;8.87;;;15.00;99.90;;;;;;5088043;28;20443;-54
2023/04/23 02:45:57;;;;;;;13.53;10.90;;;14.80;99.90;;;;;;5089100;28;20461;-52
2023/04/23 02:48:26;;;;;;;12.20;8.90;;;14.70;99.90;;;;;;5089237;28;20978;-51
2023/04/23 02:50:54;;;;;;;16.40;10.80;;;14.70;99.90;;;;;;5088548;28;20472;-54
2023/04/23 02:53:21;;;;;;;13.80;9.40;;;14.60;99.90;;;;;;5088643;28;20515;-56
2023/04/23 02:55:48;;;;;;;12.50;10.00;;;14.50;99.90;;;;;;5089352;28;20442;-53
2023/04/23 02:58:14;;;;;;;13.90;11.00;;;14.50;99.90;;;;;;5088347;28;20494;-52
2023/04/23 03:00:41;;;;;;;14.10;9.80;;;14.50;99.90;;;;;;5089166;28;20450;-51
2023/04/23 03:03:08;;;;;;;17.30;10.40;;;14.50;99.90;;;;;;5088410;28;20978;-53
2023/04/23 03:05:35;;;;;;;14.87;10.70;;;14.40;99.90;;;;;;5088765;28;20423;-55
2023/04/23 03:08:03;;;;;;;14.20;10.63;;;14.40;99.90;;;;;;5088304;28;20438;-56
2023/04/23 03:10:32;;;;;;;14.03;9.37;;;14.40;99.90;;;;;;5088378;28;20466;-56
2023/04/23 03:13:00;;;;;;;15.33;10.00;;;14.40;99.90;;;;;;5089513;28;20486;-55
2023/04/23 03:15:27;;;;;;;11.90;8.97;;;14.40;99.90;;;;;;5091599;28;20585;-57
2023/04/23 03:17:54;;;;;;;12.20;10.00;;;14.40;99.90;;;;;;5092292;28;20474;-56
2023/04/23 03:20:20;;;;;;;11.93;10.20;;;14.50;99.90;;;;;;5092166;28;20958;-52
2023/04/23 03:22:51;;;;;;;14.97;9.70;;;14.50;99.90;;;;;;5092296;28;20482;-55
2023/04/23 03:25:21;;;;;;;11.60;9.07;;;14.60;99.90;;;;;;5092589;28;20458;-55
2023/04/23 03:27:48;;;;;;;12.37;9.87;;;14.60;99.90;;;;;;5092137;28;20477;-51
2023/04/23 03:30:14;;;;;;;13.13;9.20;;;14.70;99.90;;;;;;5091718;28;20454;-53
2023/04/23 03:32:43;;;;;;;14.03;10.13;;;14.70;99.90;;;;;;5092368;28;20511;-52
2023/04/23 03:35:10;;;;;;;11.50;7.90;;;14.80;99.90;;;;;;5092215;28;20438;-52
2023/04/23 03:37:37;;;;;;;14.70;9.67;;;14.80;99.90;;;;;;5091790;28;21000;-48
2023/04/23 03:40:06;;;;;;;15.80;11.10;;;14.90;99.90;;;;;;5091610;28;20480;-54
2023/04/23 03:42:34;;;;;;;14.17;9.43;;;14.90;99.90;;;;;;5091705;28;20497;-52
2023/04/23 03:45:02;;;;;;;14.00;9.30;;;14.90;99.90;;;;;;5092759;28;20462;-55
2023/04/23 03:47:28;;;;;;;15.53;9.70;;;14.90;99.90;;;;;;5091295;28;20485;-53
2023/04/23 03:49:56;;;;;;;12.77;9.93;;;14.90;99.90;;;;;;5091096;28;20419;-55
2023/04/23 03:52:26;;;;;;;13.67;11.50;;;14.90;99.90;;;;;;5094302;28;20442;-52
2023/04/23 03:54:53;;;;;;;11.20;9.20;;;15.00;99.90;;;;;;5097762;28;20442;-53
2023/04/23 03:57:21;;;;;;;10.73;9.53;;;14.90;99.90;;;;;;5097280;28;20457;-57
2023/04/23 03:59:49;;;;;;;13.37;9.90;;;14.90;99.90;;;;;;5097491;28;20466;-57
2023/04/23 04:02:16;;;;;;;12.57;9.27;;;14.90;99.90;;;;;;5097400;28;20502;-53
2023/04/23 04:04:44;;;;;;;14.40;8.60;;;14.80;99.90;;;;;;5097625;28;20449;-57
2023/04/23 04:07:11;;;;;;;10.80;9.67;;;14.80;99.90;;;;;;5097884;28;20421;-56
2023/04/23 04:09:39;;;;;;;13.77;10.73;;;14.80;99.90;;;;;;5097443;28;20434;-53
2023/04/23 04:12:06;;;;;;;18.73;10.53;;;14.80;99.90;;;;;;5097415;28;20447;-53
2023/04/23 04:14:33;;;;;;;13.60;10.23;;;14.80;99.90;;;;;;5097087;28;20442;-55
2023/04/23 04:17:01;;;;;;;14.80;10.80;;;14.70;99.90;;;;;;5097244;28;20451;-53
2023/04/23 04:19:28;;;;;;;19.73;10.53;;;14.70;99.90;;;;;;5097462;28;20440;-55
2023/04/23 04:21:55;;;;;;;17.80;11.40;;;14.70;99.90;;;;;;5096634;28;20513;-54
2023/04/23 04:24:24;;;;;;;13.37;8.97;;;14.70;99.90;;;;;;5095673;28;20457;-52
2023/04/23 04:26:52;;;;;;;13.10;9.63;;;14.70;99.90;;;;;;5097170;28;20490;-52
2023/04/23 04:29:20;;;;;;;10.77;9.40;;;14.80;99.90;;;;;;5097265;28;20498;-56
2023/04/23 04:31:47;;;;;;;13.20;9.40;;;14.80;99.90;;;;;;5096858;28;20442;-56
2023/04/23 04:34:19;;;;;;;12.73;9.13;;;14.80;99.90;;;;;;5096942;28;20454;-53
2023/04/23 04:36:46;;;;;;;9.10;7.37;;;14.80;99.90;;;;;;5097332;28;20441;-51
2023/04/23 04:39:13;;;;;;;14.00;8.23;;;14.90;99.90;;;;;;5096471;28;20470;-53
2023/04/23 04:41:41;;;;;;;12.17;8.10;;;15.00;99.90;;;;;;5097133;28;20481;-50
2023/04/23 04:44:08;;;;;;;10.80;7.60;;;15.10;99.90;;;;;;5096892;28;20462;-54
2023/04/23 04:46:39;;;;;;;11.70;8.70;;;15.10;99.90;;;;;;5096840;28;20437;-53
2023/04/23 04:49:07;;;;;;;8.97;7.80;;;15.20;99.90;;;;;;5096527;28;20431;-55
2023/04/23 04:51:36;;;;;;;12.40;9.20;;;15.30;99.90;;;;;;5096742;28;20845;-53
2023/04/23 04:54:03;;;;;;;11.97;9.10;;;15.20;99.90;;;;;;5096775;28;20447;-54
2023/04/23 04:56:30;;;;;;;12.73;9.10;;;15.30;99.90;;;;;;5096200;28;20462;-54
2023/04/23 04:58:57;;;;;;;10.73;8.70;;;15.30;99.90;;;;;;5095829;28;20470;-53
2023/04/23 05:01:28;;;;;;;18.00;8.67;;;15.30;99.90;;;;;;5096057;28;20492;-52
2023/04/23 05:03:55;;;;;;;10.43;8.10;;;15.30;99.90;;;;;;5096615;28;20442;-51
2023/04/23 05:06:27;;;;;;;10.70;8.20;;;15.30;99.90;;;;;;5096349;28;20496;-56
2023/04/23 05:08:55;;;;;;;17.00;8.90;;;15.30;99.90;;;;;;5096584;28;20418;-55
2023/04/23 05:11:22;;;;;;;13.20;8.67;;;15.30;99.90;;;;;;5095731;28;20456;-55
2023/04/23 05:13:49;;;;;;;10.97;8.63;;;15.30;99.90;;;;;;5095244;28;20438;-56
2023/04/23 05:16:16;;;;;;;18.03;8.97;;;15.30;99.90;;;;;;5095705;28;20450;-54
2023/04/23 05:18:43;;;;;;;13.90;9.10;;;15.30;99.90;;;;;;5095899;28;20489;-53
2023/04/23 05:21:10;;;;;;;11.13;8.57;;;15.40;99.90;;;;;;5095810;28;20443;-54
2023/04/23 05:23:37;;;;;;;13.53;8.37;;;15.40;99.90;;;;;;5095529;28;20466;-53
2023/04/23 05:26:05;;;;;;;11.00;9.07;;;15.40;99.90;;;;;;5096312;28;20525;-54
2023/04/23 05:28:32;;;;;;;12.33;9.20;;;15.50;99.90;;;;;;5095989;28;20813;-53
2023/04/23 05:30:59;;;;;;;13.20;9.50;;;15.50;99.90;;;;;;5095832;28;20493;-55
2023/04/23 05:33:27;;;;;;;14.30;9.23;;;15.50;99.90;;;;;;5095731;28;20431;-56
2023/04/23 05:35:54;;;;;;;10.70;8.57;;;15.50;99.90;;;;;;5095824;28;20502;-53
2023/04/23 05:38:22;;;;;;;10.10;9.00;;;15.60;99.90;;;;;;5095140;28;20454;-52
2023/04/23 05:40:48;;;;;;;12.03;8.67;;;15.60;99.90;;;;;;5095196;28;20466;-54
2023/04/23 05:43:17;;;;;;;13.67;8.27;;;15.70;99.90;;;;;;5095383;28;20502;-55
2023/04/23 05:45:43;;;;;;;14.10;9.23;;;15.70;99.90;;;;;;5095755;28;20478;-53
2023/04/23 05:48:13;;;;;;;10.53;8.63;;;15.80;99.90;;;;;;5095744;28;20468;-55
2023/04/23 05:50:42;;;;;;;9.00;8.03;;;15.70;99.90;;;;;;5095642;28;20442;-53
2023/04/23 05:53:09;;;;;;;9.73;7.83;;;15.80;99.90;;;;;;5095227;28;20446;-56
2023/04/23 05:55:36;;;;;;;9.27;7.27;;;15.80;99.90;;;;;;5095971;28;20426;-52
2023/04/23 05:58:04;;;;;;;10.20;6.37;;;15.90;99.90;;;;;;5096051;28;20455;-50
2023/04/23 06:00:34;;;;;;;6.20;5.43;;;15.90;99.90;;;;;;5095720;28;20466;-55
2023/04/23 06:03:01;;;;;;;8.23;5.40;;;16.00;99.90;;;;;;5095108;28;20497;-52
2023/04/23 06:05:27;;;;;;;9.70;5.77;;;16.00;99.90;;;;;;5095487;28;20480;-55
2023/04/23 06:07:54;;;;;;;6.83;6.10;;;16.00;99.90;;;;;;5094931;28;20466;-49
2023/04/23 06:10:21;;;;;;;9.30;7.00;;;16.10;99.90;;;;;;5095052;28;20435;-53
2023/04/23 06:12:48;;;;;;;9.23;7.17;;;16.10;99.90;;;;;;5094983;28;20465;-54
2023/04/23 06:15:15;;;;;;;6.60;5.37;;;16.10;99.90;;;;;;5095124;28;20442;-50
2023/04/23 06:17:43;;;;;;;9.83;6.23;;;16.10;99.90;;;;;;5094828;28;20435;-55
2023/04/23 06:20:10;;;;;;;7.37;6.10;;;16.00;99.90;;;;;;5095076;28;20466;-49
2023/04/23 06:22:37;;;;;;;7.60;5.90;;;16.00;99.90;;;;;;5095031;28;20520;-51
2023/04/23 06:25:05;;;;;;;7.20;5.90;;;16.10;99.90;;;;;;5095161;28;20462;-55
2023/04/23 06:27:32;;;;;;;8.73;5.50;;;16.10;99.90;;;;;;5095122;28;20441;-55
2023/04/23 06:29:59;;;;;;;10.53;5.40;;;16.10;99.90;;;;;;5095125;28;20434;-53
2023/04/23 06:32:26;;;;;;;8.20;6.10;;;16.20;99.90;;;;;;5094724;28;20423;-55
2023/04/23 06:34:54;;;;;;;7.17;5.60;;;16.20;99.90;;;;;;5095446;28;20466;-51
2023/04/23 06:37:21;;;;;;;8.03;5.17;;;16.20;99.90;;;;;;5095355;28;20462;-49
2023/04/23 06:39:49;;;;;;;6.97;5.43;;;16.10;99.90;;;;;;5095320;28;20418;-54
2023/04/23 06:42:16;;;;;;;7.10;5.60;;;16.20;99.90;;;;;;5094460;28;20482;-53
2023/04/23 06:44:45;;;;;;;7.90;5.10;;;16.20;99.90;;;;;;5095049;28;20442;-55
2023/04/23 06:47:14;;;;;;;7.80;4.73;;;16.30;99.90;;;;;;5095227;28;20470;-57
2023/04/23 06:49:41;;;;;;;6.03;4.70;;;16.30;99.90;;;;;;5098266;28;20427;-56
2023/04/23 06:52:09;;;;;;;7.87;4.90;;;16.30;99.90;;;;;;5099181;28;20442;-56
2023/04/23 06:54:36;;;;;;;7.60;4.83;;;16.40;99.90;;;;;;5098528;28;20464;-56
2023/04/23 06:57:03;;;;;;;9.37;5.30;;;16.40;99.90;;;;;;5098426;28;20431;-56
2023/04/23 06:59:30;;;;;;;5.80;4.87;;;16.40;99.90;;;;;;5098369;28;20457;-53
2023/04/23 07:01:57;;;;;;;8.30;5.57;;;16.50;99.90;;;;;;5098087;28;20486;-55
2023/04/23 07:04:24;;;;;;;6.23;4.40;;;16.50;99.90;;;;;;5098716;28;20497;-55
2023/04/23 07:06:50;;;;;;;7.70;5.37;;;16.40;99.90;;;;;;5098375;28;20477;-52
2023/04/23 07:09:19;;;;;;;8.50;5.10;;;16.20;99.90;;;;;;5098371;28;20454;-50
2023/04/23 07:11:45;;;;;;;6.20;5.40;;;16.20;99.90;;;;;;5098230;28;20430;-55
2023/04/23 07:14:12;;;;;;;5.83;4.60;;;16.10;99.90;;;;;;5097799;28;20433;-54
2023/04/23 07:16:39;;;;;;;16.20;6.70;;;16.10;99.90;;;;;;5090109;28;20462;-54
2023/04/23 07:19:06;;;;;;;12.37;6.57;;;16.00;99.90;;;;;;5090194;28;20442;-53
2023/04/23 07:21:33;;;;;;;19.47;7.93;;;15.80;99.90;;;;;;5090940;28;20446;-55
2023/04/23 07:24:05;;;;;;;10.93;5.73;;;15.80;99.90;;;;;;5089032;28;20553;-56
2023/04/23 07:26:33;;;;;;;10.63;6.67;;;15.60;99.90;;;;;;5083423;28;20491;-53
2023/04/23 07:29:01;;;;;;;6.27;4.87;;;15.50;99.90;;;;;;5083420;28;20525;-55
2023/04/23 07:31:28;;;;;;;7.50;4.83;;;15.40;99.90;;;;;;5082740;28;20470;-56
2023/04/23 07:33:57;;;;;;;5.37;4.70;;;15.40;99.90;;;;;;5083416;28;20438;-56
2023/04/23 07:36:23;;;;;;;11.90;6.30;;;15.30;99.90;;;;;;5082842;28;20512;-55
2023/04/23 07:38:50;;;;;;;153.27;86.07;;;15.30;99.90;;;;;;5083561;28;20439;-57
2023/04/23 07:41:17;;;;;;;13.07;8.83;;;15.20;99.90;;;;;;5082857;28;20595;-55
2023/04/23 07:43:46;;;;;;;8.40;6.93;;;15.20;99.90;;;;;;5082401;28;20510;-57
2023/04/23 07:46:13;;;;;;;8.27;6.20;;;15.30;99.90;;;;;;5083822;28;20558;-55
2023/04/23 07:48:48;;;;;;;9.30;6.40;;;15.30;99.90;;;;;;5084035;28;20903;-54
2023/04/23 07:51:16;;;;;;;7.60;5.80;;;15.30;99.90;;;;;;5083254;28;20481;-57
2023/04/23 07:53:43;;;;;;;12.17;7.60;;;15.30;99.90;;;;;;5083171;28;20434;-56
2023/04/23 07:56:10;;;;;;;8.13;5.87;;;15.30;99.90;;;;;;5083133;28;20470;-57
2023/04/23 07:58:37;;;;;;;6.60;5.90;;;15.40;99.90;;;;;;5083808;28;20868;-54
2023/04/23 08:01:05;;;;;;;9.57;5.63;;;15.30;99.90;;;;;;5083405;28;20490;-55
2023/04/23 08:03:32;;;;;;;11.13;6.40;;;15.30;99.90;;;;;;5083280;28;20546;-54
2023/04/23 08:05:59;;;;;;;20.07;15.07;;;15.40;99.90;;;;;;5083167;28;20466;-52
2023/04/23 08:08:26;;;;;;;12.23;6.20;;;15.40;99.90;;;;;;5083394;28;20474;-55
2023/04/23 08:10:52;;;;;;;12.80;6.93;;;15.50;99.90;;;;;;5083193;28;20481;-55
2023/04/23 08:13:20;;;;;;;13.40;6.23;;;15.50;99.90;;;;;;5084284;28;20454;-56
2023/04/23 08:15:47;;;;;;;14.80;5.93;;;15.40;99.90;;;;;;5082986;28;20514;-56
2023/04/23 08:18:16;;;;;;;7.97;5.93;;;15.40;99.90;;;;;;5082926;28;20507;-56
2023/04/23 08:20:55;;;;;;;9.03;6.23;;;15.40;99.90;;;;;;5083489;28;20532;-55
2023/04/23 08:23:21;;;;;;;13.57;7.70;;;15.40;99.90;;;;;;5082548;28;20478;-55
2023/04/23 08:25:48;;;;;;;9.50;7.50;;;15.40;99.90;;;;;;5083266;28;20517;-56
2023/04/23 08:28:15;;;;;;;8.20;5.20;;;15.50;99.90;;;;;;5083043;28;20446;-52
2023/04/23 08:30:42;;;;;;;13.10;6.90;;;15.50;99.90;;;;;;5082821;28;20459;-53
2023/04/23 08:33:11;;;;;;;6.53;5.70;;;15.60;99.90;;;;;;5082042;28;20616;-52
2023/04/23 08:35:40;;;;;;;8.13;6.43;;;15.60;99.90;;;;;;5082669;28;20482;-52
2023/04/23 08:38:06;;;;;;;9.53;6.43;;;15.70;99.90;;;;;;5082807;28;20477;-55
2023/04/23 08:40:37;;;;;;;10.53;6.03;;;15.80;99.90;;;;;;5081825;28;20474;-56
2023/04/23 08:43:10;;;;;;;12.00;5.33;;;15.80;99.90;;;;;;5082433;28;20517;-58
2023/04/23 08:45:40;;;;;;;7.50;5.37;;;16.00;99.90;;;;;;5082837;28;20806;-57
2023/04/23 08:48:09;;;;;;;8.30;5.70;;;16.00;99.90;;;;;;5081949;28;20481;-55
2023/04/23 08:50:41;;;;;;;6.97;5.93;;;16.10;99.90;;;;;;5081749;28;20514;-56
2023/04/23 08:53:09;;;;;;;7.17;5.30;;;16.30;99.90;;;;;;5081578;28;20510;-55
2023/04/23 08:55:36;;;;;;;10.13;5.30;;;16.60;99.90;;;;;;5081844;28;20508;-55
2023/04/23 08:58:05;;;;;;;12.40;5.80;;;16.80;99.90;;;;;;5081416;28;20442;-54
2023/04/23 09:00:33;;;;;;;6.90;5.37;;;16.90;99.90;;;;;;5081463;28;21049;-54
2023/04/23 09:03:00;;;;;;;8.40;5.60;;;16.80;99.90;;;;;;5080434;28;20521;-56
2023/04/23 09:05:30;;;;;;;8.20;6.13;;;16.70;99.90;;;;;;5081357;28;20478;-56
2023/04/23 09:07:59;;;;;;;7.90;5.97;;;16.60;99.90;;;;;;5080800;28;20450;-52
2023/04/23 09:10:26;;;;;;;6.13;5.17;;;16.40;99.90;;;;;;5081120;28;20451;-55
2023/04/23 09:12:54;;;;;;;8.10;5.10;;;16.30;99.90;;;;;;5081101;28;20917;-54
2023/04/23 09:15:22;;;;;;;6.43;5.83;;;16.20;99.90;;;;;;5081064;28;20472;-51
2023/04/23 09:17:49;;;;;;;8.10;6.10;;;16.20;99.90;;;;;;5080638;28;20472;-55
2023/04/23 09:20:16;;;;;;;7.43;6.07;;;16.10;99.90;;;;;;5080917;28;20824;-53
2023/04/23 09:22:45;;;;;;;16.13;6.20;;;16.10;99.90;;;;;;5080627;28;20518;-53
2023/04/23 09:25:15;;;;;;;7.87;5.37;;;16.00;99.90;;;;;;5080582;28;20482;-56
2023/04/23 09:27:42;;;;;;;9.10;6.17;;;15.90;99.90;;;;;;5080786;28;20509;-51
2023/04/23 09:30:10;;;;;;;12.00;6.10;;;15.80;99.90;;;;;;5079952;28;20534;-52
2023/04/23 09:32:39;;;;;;;6.80;5.70;;;15.70;99.90;;;;;;5080700;28;20482;-51
2023/04/23 09:35:07;;;;;;;8.33;6.50;;;15.60;99.90;;;;;;5080956;28;20453;-53
2023/04/23 09:37:35;;;;;;;7.77;5.80;;;15.50;99.90;;;;;;5080882;28;20477;-51
2023/04/23 09:40:03;;;;;;;6.60;5.10;;;15.40;99.90;;;;;;5081350;28;20470;-54
2023/04/23 09:42:33;;;;;;;9.97;5.00;;;15.20;99.90;;;;;;5081854;28;20457;-55
2023/04/23 09:45:04;;;;;;;5.70;4.00;;;15.00;99.90;;;;;;5082826;28;20494;-52
2023/04/23 09:47:33;;;;;;;6.90;5.10;;;14.80;99.90;;;;;;5083249;28;20453;-52
2023/04/23 09:50:00;;;;;;;6.00;3.70;;;14.80;99.90;;;;;;5081872;28;20572;-53
2023/04/23 09:52:30;;;;;;;7.93;3.70;;;14.80;99.90;;;;;;5082536;28;20495;-52
2023/04/23 09:57:41;;;;;;;4.20;3.80;;;14.70;99.90;;;;;;5082119;28;20461;-50
2023/04/23 10:00:15;;;;;;;4.87;3.77;;;14.60;99.90;;;;;;5082436;28;20458;-56
2023/04/23 10:02:47;;;;;;;3.67;3.10;;;14.60;99.90;;;;;;5081822;28;20473;-56
2023/04/23 10:05:17;;;;;;;3.63;3.10;;;14.50;99.90;;;;;;5090132;28;20403;-55
2023/04/23 10:07:45;;;;;;;5.40;3.10;;;14.60;99.90;;;;;;5093326;28;20454;-55
2023/04/23 10:10:12;;;;;;;7.73;3.40;;;14.60;99.90;;;;;;5096217;28;20584;-54
2023/04/23 10:12:41;;;;;;;4.90;2.90;;;14.60;99.90;;;;;;5096288;28;20474;-52
2023/04/23 10:15:11;;;;;;;3.40;3.10;;;14.60;99.90;;;;;;5096081;28;20464;-52
2023/04/23 10:17:38;;;;;;;4.07;3.13;;;14.50;99.90;;;;;;5094265;28;20430;-53
2023/04/23 10:20:07;;;;;;;3.20;2.40;;;14.50;99.90;;;;;;5095754;28;20456;-54
2023/04/23 10:22:34;;;;;;;3.33;2.30;;;14.30;99.90;;;;;;5097335;28;20455;-56
2023/04/23 10:25:10;;;;;;;3.67;2.60;;;14.20;99.90;;;;;;5099939;28;20486;-57
2023/04/23 10:27:40;;;;;;;6.30;3.27;;;14.00;99.90;;;;;;5100296;28;20414;-55
2023/04/23 10:30:08;;;;;;;6.50;4.37;;;13.80;99.90;;;;;;5098618;28;20953;-55
2023/04/23 10:32:36;;;;;;;5.00;3.23;;;13.80;99.90;;;;;;5099487;28;20438;-56
2023/04/23 10:35:03;;;;;;;7.67;4.33;;;13.80;99.90;;;;;;5100065;28;20966;-53
2023/04/23 10:37:31;;;;;;;5.67;4.23;;;13.90;99.90;;;;;;5100679;28;20434;-49
2023/04/23 10:40:04;;;;;;;6.93;4.70;;;14.00;99.90;;;;;;5100513;28;20439;-55
2023/04/23 10:42:32;;;;;;;5.63;4.67;;;14.10;99.90;;;;;;5100568;28;20411;-53
2023/04/23 10:45:00;;;;;;;7.53;5.20;;;14.40;99.90;;;;;;5099213;28;20480;-55
2023/04/23 10:47:27;;;;;;;7.07;4.77;;;14.60;99.90;;;;;;5096724;28;20466;-54
2023/04/23 10:49:56;;;;;;;6.43;4.57;;;14.80;99.90;;;;;;5099280;28;20466;-54
2023/04/23 10:52:22;;;;;;;7.37;4.20;;;15.00;99.90;;;;;;5094756;28;20966;-50
2023/04/23 10:54:56;;;;;;;7.70;4.67;;;15.20;99.90;;;;;;5094201;28;20440;-53
2023/04/23 10:57:23;;;;;;;6.63;4.70;;;15.40;99.90;;;;;;5097346;28;20466;-54
2023/04/23 10:59:57;;;;;;;6.03;4.60;;;15.50;99.90;;;;;;5094431;28;20426;-53
2023/04/23 11:02:26;;;;;;;8.70;5.10;;;15.80;99.90;;;;;;5093602;28;20483;-52
2023/04/23 11:04:55;;;;;;;8.60;4.13;;;15.80;99.90;;;;;;5095246;28;20462;-50
2023/04/23 11:07:27;;;;;;;7.73;5.47;;;15.90;99.90;;;;;;5098660;28;20466;-47
2023/04/23 11:09:56;;;;;;;8.43;5.77;;;15.90;99.90;;;;;;5098745;28;20466;-50
2023/04/23 11:12:33;;;;;;;9.67;6.70;;;15.90;99.90;;;;;;5098091;28;20434;-51
2023/04/23 11:15:11;;;;;;;6.80;5.10;;;15.80;99.90;;;;;;5093773;28;20505;-50
2023/04/23 11:18:01;;;;;;;7.87;5.27;;;15.80;99.90;;;;;;5093123;28;20444;-52
2023/04/23 11:20:28;;;;;;;10.10;6.20;;;15.70;99.90;;;;;;5092736;28;20472;-54
2023/04/23 11:22:55;;;;;;;9.47;6.37;;;15.80;99.90;;;;;;5093017;28;20473;-55
2023/04/23 11:25:23;;;;;;;7.30;5.47;;;15.90;99.90;;;;;;5092530;28;20481;-55
2023/04/23 11:27:51;;;;;;;8.83;5.53;;;16.00;99.90;;;;;;5092041;28;20461;-56
2023/04/23 11:30:20;;;;;;;7.43;5.00;;;16.00;99.90;;;;;;5091662;28;20446;-53
2023/04/23 11:32:48;;;;;;;7.60;5.43;;;16.10;99.90;;;;;;5091502;28;20527;-53
2023/04/23 11:35:18;;;;;;;11.90;6.23;;;16.20;99.90;;;;;;5091236;28;20476;-51
2023/04/23 11:37:47;;;;;;;8.23;5.03;;;16.30;99.90;;;;;;5091493;28;20961;-54
2023/04/23 11:40:17;;;;;;;7.10;5.00;;;16.20;99.90;;;;;;5091435;28;20442;-54
2023/04/23 11:42:46;;;;;;;10.40;5.53;;;16.20;99.90;;;;;;5092275;28;20466;-56
2023/04/23 11:45:17;;;;;;;7.43;5.47;;;16.20;99.90;;;;;;5092393;28;20466;-56
2023/04/23 11:47:45;;;;;;;7.27;5.00;;;16.10;99.90;;;;;;5093129;28;20446;-53
2023/04/23 11:50:19;;;;;;;11.97;4.97;;;16.10;99.90;;;;;;5092563;28;20446;-53
2023/04/23 11:52:46;;;;;;;7.70;5.13;;;16.00;99.90;;;;;;5093069;28;20910;-53
2023/04/23 11:55:13;;;;;;;6.50;4.40;;;16.10;99.90;;;;;;5092608;28;20493;-53
2023/04/23 11:57:44;;;;;;;7.27;4.77;;;16.30;99.90;;;;;;5091713;28;20438;-53
2023/04/23 12:00:14;;;;;;;6.30;4.60;;;16.60;99.90;;;;;;5092455;28;20474;-52
2023/04/23 12:02:50;;;;;;;6.20;4.37;;;16.70;99.90;;;;;;5090791;28;20457;-54
2023/04/23 12:05:22;;;;;;;7.20;4.80;;;16.80;99.90;;;;;;5089560;28;20975;-54
2023/04/23 12:07:50;;;;;;;9.60;5.67;;;17.10;99.90;;;;;;5088134;28;20446;-52
2023/04/23 12:10:18;;;;;;;7.87;5.67;;;17.30;99.90;;;;;;5088088;28;20461;-56
2023/04/23 12:12:50;;;;;;;5.50;4.30;;;17.40;99.90;;;;;;5088197;28;20457;-57
2023/04/23 12:15:17;;;;;;;9.90;4.30;;;17.50;99.90;;;;;;5087994;28;20505;-53
2023/04/23 12:17:49;;;;;;;5.63;4.53;;;17.60;99.90;;;;;;5088150;28;20466;-52
2023/04/23 12:20:18;;;;;;;5.40;3.83;;;17.60;99.90;;;;;;5088662;28;20426;-53
2023/04/23 12:22:47;;;;;;;4.80;3.40;;;17.50;99.90;;;;;;5088752;28;20459;-52
2023/04/23 12:25:14;;;;;;;3.87;3.23;;;17.50;99.90;;;;;;5088710;28;20541;-55
2023/04/23 12:27:44;;;;;;;5.77;3.77;;;17.60;99.90;;;;;;5087772;28;20509;-53
2023/04/23 12:30:12;;;;;;;3.70;3.07;;;17.80;99.90;;;;;;5087792;28;20502;-51
2023/04/23 12:32:39;;;;;;;3.70;2.77;;;17.90;99.90;;;;;;5087523;28;20473;-54
2023/04/23 12:35:08;;;;;;;3.60;2.13;;;18.10;99.90;;;;;;5087058;28;20477;-56
2023/04/23 12:37:37;;;;;;;3.00;2.03;;;18.10;99.90;;;;;;5086683;28;20837;-54
2023/04/23 12:40:07;;;;;;;2.40;1.97;;;18.30;99.90;;;;;;5085952;28;20473;-53
2023/04/23 12:42:35;;;;;;;2.07;1.60;;;18.40;99.90;;;;;;5085906;28;20452;-56
2023/04/23 12:45:07;;;;;;;2.70;1.63;;;18.50;99.90;;;;;;5091373;28;20480;-54
2023/04/23 12:47:34;;;;;;;2.73;2.37;;;18.70;99.90;;;;;;5095700;28;20429;-54